createdAt,value
2023-05-12T00:00:23.232Z,19.40
2023-05-12T00:02:51.710Z,18.77
2023-05-12T00:05:18.521Z,19.47
2023-05-12T00:07:45.295Z,17.40
2023-05-12T00:10:12.262Z,17.80
2023-05-12T00:12:39.565Z,18.80
2023-05-12T00:15:07.497Z,17.77
2023-05-12T00:17:34.709Z,18.03
2023-05-12T00:20:03.605Z,23.70
2023-05-12T00:22:31.582Z,18.17
2023-05-12T00:24:58.811Z,18.07
2023-05-12T00:27:25.796Z,19.13
2023-05-12T00:29:53.238Z,18.87
2023-05-12T00:32:20.407Z,17.77
2023-05-12T00:34:47.302Z,18.23
2023-05-12T00:37:16.023Z,19.00
2023-05-12T00:39:42.806Z,18.63
2023-05-12T00:42:10.019Z,18.43
2023-05-12T00:44:37.115Z,18.77
2023-05-12T00:47:04.808Z,20.93
2023-05-12T00:49:32.365Z,19.77
2023-05-12T00:52:00.054Z,19.97
2023-05-12T00:54:28.771Z,19.97
2023-05-12T00:56:56.101Z,21.23
2023-05-12T00:59:22.911Z,21.43
2023-05-12T01:01:50.709Z,21.13
2023-05-12T01:04:17.641Z,22.93
2023-05-12T01:06:49.996Z,21.30
2023-05-12T01:09:17.352Z,20.90
2023-05-12T01:11:45.913Z,20.57
2023-05-12T01:14:12.747Z,21.80
2023-05-12T01:16:46.253Z,21.67
2023-05-12T01:19:28.457Z,21.50
2023-05-12T01:21:55.866Z,21.97
2023-05-12T01:24:27.108Z,21.07
2023-05-12T01:26:55.745Z,21.93
2023-05-12T01:29:23.565Z,21.83
2023-05-12T01:31:51.382Z,21.03
2023-05-12T01:34:21.052Z,20.53
2023-05-12T01:36:48.158Z,23.00
2023-05-12T01:39:15.232Z,23.07
2023-05-12T01:41:42.401Z,21.60
2023-05-12T01:44:10.576Z,22.13
2023-05-12T01:46:37.776Z,23.00
2023-05-12T01:49:04.691Z,23.87
2023-05-12T01:51:31.869Z,23.23
2023-05-12T01:53:58.755Z,21.57
2023-05-12T01:56:26.782Z,22.87
2023-05-12T01:58:53.850Z,22.03
2023-05-12T02:01:25.197Z,23.37
2023-05-12T02:03:52.789Z,21.43
2023-05-12T02:06:20.012Z,22.97
2023-05-12T02:08:46.843Z,22.67
2023-05-12T02:11:14.057Z,22.27
2023-05-12T02:13:40.993Z,22.50
2023-05-12T02:16:08.276Z,21.67
2023-05-12T02:18:36.454Z,21.70
2023-05-12T02:21:03.282Z,21.73
2023-05-12T02:23:30.214Z,21.47
2023-05-12T02:25:57.453Z,22.10
2023-05-12T02:28:24.259Z,22.60
2023-05-12T02:30:52.939Z,20.40
2023-05-12T02:33:20.932Z,21.30
2023-05-12T02:35:49.261Z,26.83
2023-05-12T02:38:16.567Z,28.93
2023-05-12T02:40:43.666Z,25.93
2023-05-12T02:43:10.599Z,37.83
2023-05-12T02:45:38.216Z,22.67
2023-05-12T02:48:06.129Z,22.20
2023-05-12T02:50:32.876Z,22.60
2023-05-12T02:53:01.513Z,26.30
2023-05-12T02:55:30.145Z,23.03
2023-05-12T02:57:57.410Z,23.47
2023-05-12T03:00:24.349Z,24.37
2023-05-12T03:02:51.963Z,26.47
2023-05-12T03:05:18.970Z,24.90
2023-05-12T03:07:48.877Z,25.03
2023-05-12T03:10:17.583Z,25.90
2023-05-12T03:12:44.810Z,25.60
2023-05-12T03:15:12.102Z,28.23
2023-05-12T03:17:39.577Z,25.80
2023-05-12T03:20:07.722Z,25.23
2023-05-12T03:22:34.861Z,27.93
2023-05-12T03:25:01.887Z,23.77
2023-05-12T03:27:30.498Z,23.53
2023-05-12T03:29:57.582Z,22.87
2023-05-12T03:32:24.909Z,24.50
2023-05-12T03:34:51.767Z,24.17
2023-05-12T03:37:18.868Z,24.17
2023-05-12T03:39:45.991Z,23.73
2023-05-12T03:42:14.243Z,22.10
2023-05-12T03:44:42.660Z,21.27
2023-05-12T03:47:09.857Z,26.43
2023-05-12T03:49:37.124Z,20.93
2023-05-12T03:52:04.502Z,19.10
2023-05-12T03:54:31.381Z,18.87
2023-05-12T03:56:58.493Z,17.90
2023-05-12T03:59:25.658Z,17.13
2023-05-12T04:01:54.164Z,16.47
2023-05-12T04:04:20.953Z,16.83
2023-05-12T04:06:48.461Z,17.90
2023-05-12T04:09:16.591Z,16.67
2023-05-12T04:11:43.838Z,18.30
2023-05-12T04:14:10.780Z,18.43
2023-05-12T04:16:39.031Z,16.13
2023-05-12T04:19:07.522Z,16.53
2023-05-12T04:21:34.406Z,17.17
2023-05-12T04:24:01.210Z,16.53
2023-05-12T04:26:28.359Z,17.03
2023-05-12T04:28:55.080Z,14.83
2023-05-12T04:31:22.213Z,16.60
2023-05-12T04:33:49.588Z,15.30
2023-05-12T04:36:18.114Z,14.50
2023-05-12T04:38:44.866Z,19.50
2023-05-12T04:41:12.102Z,14.47
2023-05-12T04:46:09.020Z,14.13
2023-05-12T04:48:41.788Z,13.50
2023-05-12T04:51:09.141Z,12.90
2023-05-12T04:53:37.216Z,14.70
2023-05-12T04:56:04.785Z,14.80
2023-05-12T04:58:31.683Z,14.87
2023-05-12T05:00:58.819Z,17.67
2023-05-12T05:03:25.958Z,17.63
2023-05-12T05:05:53.209Z,13.10
2023-05-12T05:08:20.132Z,14.80
2023-05-12T05:10:48.844Z,14.80
2023-05-12T05:13:16.428Z,13.80
2023-05-12T05:15:50.518Z,12.53
2023-05-12T05:18:17.491Z,12.50
2023-05-12T05:20:50.774Z,14.93
2023-05-12T05:23:24.128Z,12.27
2023-05-12T05:25:52.824Z,15.23
2023-05-12T05:28:19.638Z,11.80
2023-05-12T05:30:46.519Z,16.40
2023-05-12T05:33:13.402Z,12.97
2023-05-12T05:35:41.036Z,13.17
2023-05-12T05:38:07.784Z,13.07
2023-05-12T05:40:48.813Z,13.37
2023-05-12T05:43:20.917Z,14.07
2023-05-12T05:45:50.249Z,12.40
2023-05-12T05:48:17.287Z,9.60
2023-05-12T05:50:44.945Z,9.83
2023-05-12T05:53:11.754Z,10.37
2023-05-12T05:55:38.864Z,8.73
2023-05-12T05:58:05.705Z,10.83
2023-05-12T06:00:34.331Z,11.27
2023-05-12T06:03:01.507Z,10.43
2023-05-12T06:05:28.740Z,9.87
2023-05-12T06:07:55.583Z,16.20
2023-05-12T06:10:22.820Z,18.13
2023-05-12T06:12:50.511Z,8.20
2023-05-12T06:15:18.326Z,11.83
2023-05-12T06:17:46.828Z,10.73
2023-05-12T06:20:14.168Z,12.77
2023-05-12T06:22:44.335Z,7.20
2023-05-12T06:25:11.521Z,6.30
2023-05-12T06:27:38.506Z,8.70
2023-05-12T06:30:06.523Z,10.10
2023-05-12T06:32:33.814Z,9.17
2023-05-12T06:35:02.312Z,8.73
2023-05-12T06:37:29.142Z,9.60
2023-05-12T06:39:56.351Z,11.17
2023-05-12T06:42:23.140Z,9.20
2023-05-12T06:44:50.307Z,7.13
2023-05-12T06:47:17.159Z,7.03
2023-05-12T06:49:44.493Z,9.80
2023-05-12T06:52:12.659Z,13.37
2023-05-12T06:54:39.725Z,11.53
2023-05-12T06:57:06.501Z,7.93
2023-05-12T06:59:33.801Z,6.60
2023-05-12T07:02:00.862Z,10.90
2023-05-12T07:04:28.298Z,9.87
2023-05-12T07:06:55.091Z,6.80
2023-05-12T07:09:23.546Z,7.60
2023-05-12T07:11:51.058Z,8.77
2023-05-12T07:14:18.270Z,12.65
2023-05-12T07:16:45.078Z,13.00
2023-05-12T07:19:12.285Z,9.70
2023-05-12T07:21:39.242Z,9.02
2023-05-12T07:24:07.671Z,7.95
2023-05-12T07:26:35.935Z,8.45
2023-05-12T07:29:04.397Z,6.43
2023-05-12T07:31:31.395Z,8.27
2023-05-12T07:33:58.238Z,11.63
2023-05-12T07:36:25.008Z,9.68
2023-05-12T07:38:51.918Z,13.27
2023-05-12T07:41:18.801Z,10.20
2023-05-12T07:43:47.309Z,13.52
2023-05-12T07:46:14.132Z,7.93
2023-05-12T07:48:41.079Z,9.75
2023-05-12T07:51:08.239Z,18.50
2023-05-12T07:53:35.947Z,13.38
2023-05-12T07:56:02.891Z,7.53
2023-05-12T07:58:30.143Z,10.65
2023-05-12T08:01:00.123Z,9.25
2023-05-12T08:03:27.600Z,8.02
2023-05-12T08:05:54.482Z,12.00
2023-05-12T08:08:22.157Z,8.07
2023-05-12T08:10:49.030Z,7.78
2023-05-12T08:13:15.936Z,12.40
2023-05-12T08:15:42.894Z,11.50
2023-05-12T08:18:11.605Z,10.02
2023-05-12T08:20:38.410Z,9.38
2023-05-12T08:23:05.241Z,8.45
2023-05-12T08:25:34.736Z,17.08
2023-05-12T08:28:01.976Z,11.05
2023-05-12T08:30:28.965Z,8.13
2023-05-12T08:32:56.769Z,10.00
2023-05-12T08:35:26.422Z,12.27
2023-05-12T08:37:53.822Z,11.18
2023-05-12T08:40:22.925Z,11.70
2023-05-12T08:43:01.836Z,8.10
2023-05-12T08:45:29.995Z,6.85
2023-05-12T08:47:58.842Z,10.15
2023-05-12T08:50:28.714Z,14.10
2023-05-12T08:52:57.172Z,10.77
2023-05-12T08:55:30.840Z,7.82
2023-05-12T08:58:03.269Z,13.63
2023-05-12T09:00:32.754Z,11.05
2023-05-12T09:03:01.426Z,9.60
2023-05-12T09:05:30.793Z,6.05
2023-05-12T09:07:59.613Z,7.30
2023-05-12T09:10:34.869Z,6.68
2023-05-12T09:13:04.994Z,10.10
2023-05-12T09:15:36.268Z,10.13
2023-05-12T09:18:03.165Z,13.00
2023-05-12T09:20:32.107Z,13.27
2023-05-12T09:23:00.377Z,9.75
2023-05-12T09:25:27.193Z,11.50
2023-05-12T09:27:56.650Z,10.75
2023-05-12T09:30:31.061Z,8.10
2023-05-12T09:33:06.529Z,11.70
2023-05-12T09:35:38.900Z,11.23
2023-05-12T09:38:07.017Z,10.18
2023-05-12T09:40:34.176Z,13.70
2023-05-12T09:43:03.086Z,7.38
2023-05-12T09:45:34.629Z,12.00
2023-05-12T09:48:09.525Z,7.43
2023-05-12T09:50:47.785Z,10.27
2023-05-12T09:53:17.383Z,13.77
2023-05-12T09:55:45.102Z,11.82
2023-05-12T09:58:14.892Z,9.40
2023-05-12T10:00:59.140Z,11.00
2023-05-12T10:03:31.096Z,12.82
2023-05-12T10:06:02.656Z,9.82
2023-05-12T10:08:33.949Z,12.68
2023-05-12T10:11:04.644Z,8.52
2023-05-12T10:13:33.277Z,6.80
2023-05-12T10:16:00.647Z,9.15
2023-05-12T10:18:28.610Z,9.27
2023-05-12T10:20:57.674Z,8.18
2023-05-12T10:23:27.530Z,5.55
2023-05-12T10:26:05.362Z,12.13
2023-05-12T10:28:32.528Z,10.32
2023-05-12T10:31:00.222Z,11.73
2023-05-12T10:33:27.671Z,10.02
2023-05-12T10:35:55.152Z,10.80
2023-05-12T10:38:22.285Z,10.73
2023-05-12T10:40:53.654Z,11.13
2023-05-12T10:43:25.240Z,6.75
2023-05-12T10:46:08.898Z,8.85
2023-05-12T10:48:36.750Z,6.60
2023-05-12T10:51:08.215Z,10.52
2023-05-12T10:53:48.228Z,10.80
2023-05-12T10:56:24.990Z,5.43
2023-05-12T10:59:14.132Z,10.75
2023-05-12T11:01:43.157Z,8.18
2023-05-12T11:04:13.391Z,8.55
2023-05-12T11:06:41.839Z,5.65
2023-05-12T11:09:13.837Z,5.05
2023-05-12T11:11:45.670Z,6.93
2023-05-12T11:14:13.641Z,5.57
2023-05-12T11:16:43.556Z,6.32
2023-05-12T11:19:10.712Z,13.57
2023-05-12T11:21:38.918Z,4.60
2023-05-12T11:24:06.260Z,6.20
2023-05-12T11:26:34.658Z,5.43
2023-05-12T11:29:03.568Z,6.55
2023-05-12T11:31:30.815Z,4.97
2023-05-12T11:34:12.091Z,4.18
2023-05-12T11:36:42.432Z,7.78
2023-05-12T11:39:14.171Z,4.18
2023-05-12T11:41:41.464Z,6.28
2023-05-12T11:44:17.429Z,7.32
2023-05-12T11:46:58.619Z,6.65
2023-05-12T11:49:26.365Z,5.72
2023-05-12T11:51:53.882Z,5.57
2023-05-12T11:54:21.982Z,6.60
2023-05-12T11:56:49.856Z,11.68
2023-05-12T11:59:28.273Z,3.15
2023-05-12T12:01:56.139Z,6.70
2023-05-12T12:04:34.231Z,4.85
2023-05-12T12:07:01.611Z,3.15
2023-05-12T12:09:33.361Z,6.60
2023-05-12T12:12:01.181Z,7.43
2023-05-12T12:14:31.713Z,4.43
2023-05-12T12:16:59.269Z,10.98
2023-05-12T12:19:27.813Z,8.40
2023-05-12T12:21:54.879Z,3.90
2023-05-12T12:24:21.861Z,6.95
2023-05-12T12:26:48.722Z,7.93
2023-05-12T12:29:15.486Z,3.00
2023-05-12T12:31:44.093Z,4.78
2023-05-12T12:34:11.247Z,9.77
2023-05-12T12:36:38.477Z,4.10
2023-05-12T12:39:05.369Z,4.05
2023-05-12T12:41:32.424Z,13.23
2023-05-12T12:43:59.399Z,5.30
2023-05-12T12:46:26.618Z,3.08
2023-05-12T12:48:54.867Z,5.05
2023-05-12T12:51:21.852Z,17.20
2023-05-12T12:53:48.718Z,7.47
2023-05-12T12:56:15.963Z,6.55
2023-05-12T12:58:43.274Z,4.93
2023-05-12T13:01:10.577Z,10.98
2023-05-12T13:03:37.958Z,6.30
2023-05-12T13:06:06.802Z,7.72
2023-05-12T13:08:33.687Z,8.48
2023-05-12T13:11:00.914Z,5.70
2023-05-12T13:13:27.735Z,5.10
2023-05-12T13:15:54.941Z,5.20
2023-05-12T13:18:21.995Z,10.43
2023-05-12T13:20:48.868Z,6.03
2023-05-12T13:23:17.305Z,6.53
2023-05-12T13:25:46.435Z,6.40
2023-05-12T13:28:13.356Z,6.65
2023-05-12T13:30:40.383Z,9.82
2023-05-12T13:33:07.260Z,5.10
2023-05-12T13:35:34.448Z,5.80
2023-05-12T13:38:01.259Z,3.10
2023-05-12T13:40:29.793Z,3.38
2023-05-12T13:42:56.586Z,8.10
2023-05-12T13:45:24.207Z,5.20
2023-05-12T13:47:51.413Z,7.18
2023-05-12T13:50:18.906Z,3.95
2023-05-12T13:52:47.596Z,4.22
2023-05-12T13:55:20.865Z,4.18
2023-05-12T13:57:50.324Z,5.47
2023-05-12T14:00:18.254Z,2.53
2023-05-12T14:02:45.345Z,10.27
2023-05-12T14:05:12.596Z,4.85
2023-05-12T14:07:39.745Z,6.05
2023-05-12T14:10:08.072Z,3.88
2023-05-12T14:12:36.285Z,4.80
2023-05-12T14:15:21.830Z,6.50
2023-05-12T14:17:52.678Z,9.27
2023-05-12T14:20:19.556Z,5.97
2023-05-12T14:22:46.517Z,7.10
2023-05-12T14:25:13.885Z,5.38
2023-05-12T14:27:40.736Z,5.32
2023-05-12T14:30:11.187Z,4.13
2023-05-12T14:32:38.441Z,4.32
2023-05-12T14:35:08.253Z,4.25
2023-05-12T14:37:35.374Z,7.10
2023-05-12T14:40:02.617Z,3.50
2023-05-12T14:42:30.390Z,6.20
2023-05-12T14:44:57.330Z,6.57
2023-05-12T14:47:25.853Z,7.32
2023-05-12T14:49:53.206Z,8.70
2023-05-12T14:52:20.068Z,5.47
2023-05-12T14:54:47.201Z,3.20
2023-05-12T14:57:14.103Z,4.13
2023-05-12T14:59:41.476Z,6.28
2023-05-12T15:02:08.497Z,5.28
2023-05-12T15:04:37.201Z,7.53
2023-05-12T15:07:04.976Z,5.65
2023-05-12T15:09:31.914Z,7.03
2023-05-12T15:11:58.637Z,6.63
2023-05-12T15:14:25.817Z,8.82
2023-05-12T15:16:52.671Z,10.63
2023-05-12T15:19:21.603Z,6.30
2023-05-12T15:21:49.768Z,3.15
2023-05-12T15:24:16.923Z,5.50
2023-05-12T15:26:43.837Z,2.42
2023-05-12T15:29:11.116Z,12.80
2023-05-12T15:31:38.014Z,4.93
2023-05-12T15:34:05.527Z,7.38
2023-05-12T15:36:32.439Z,12.10
2023-05-12T15:39:00.702Z,2.65
2023-05-12T15:41:27.906Z,7.97
2023-05-12T15:43:54.707Z,2.90
2023-05-12T15:46:23.059Z,5.85
2023-05-12T15:48:50.326Z,3.47
2023-05-12T15:51:17.652Z,3.53
2023-05-12T15:53:45.849Z,6.25
2023-05-12T15:56:14.448Z,6.05
2023-05-12T15:58:41.332Z,3.10
2023-05-12T16:01:08.162Z,5.05
2023-05-12T16:03:35.096Z,4.90
2023-05-12T16:06:02.235Z,7.70
2023-05-12T16:08:28.995Z,4.82
2023-05-12T16:10:56.100Z,6.03
2023-05-12T16:13:24.253Z,5.55
2023-05-12T16:15:51.833Z,5.60
2023-05-12T16:18:18.886Z,20.10
2023-05-12T16:20:47.370Z,3.20
2023-05-12T16:23:14.519Z,5.93
2023-05-12T16:25:42.618Z,6.07
2023-05-12T16:28:09.439Z,4.35
2023-05-12T16:30:37.813Z,4.13
2023-05-12T16:33:05.159Z,5.07
2023-05-12T16:35:31.981Z,3.53
2023-05-12T16:37:58.879Z,3.20
2023-05-12T16:40:25.705Z,3.97
2023-05-12T16:42:52.999Z,6.78
2023-05-12T16:45:21.220Z,12.73
2023-05-12T16:47:50.307Z,5.97
2023-05-12T16:50:17.834Z,8.57
2023-05-12T16:52:44.715Z,4.60
2023-05-12T16:55:12.186Z,7.13
2023-05-12T16:57:41.375Z,8.52
2023-05-12T17:00:10.536Z,5.55
2023-05-12T17:02:38.941Z,12.20
2023-05-12T17:05:08.050Z,6.40
2023-05-12T17:07:38.248Z,7.40
2023-05-12T17:10:06.674Z,5.00
2023-05-12T17:12:33.960Z,8.45
2023-05-12T17:15:07.693Z,6.32
2023-05-12T17:17:37.285Z,4.70
2023-05-12T17:20:05.921Z,3.85
2023-05-12T17:22:37.646Z,7.13
2023-05-12T17:25:05.453Z,5.20
2023-05-12T17:27:32.636Z,14.18
2023-05-12T17:29:59.791Z,5.45
2023-05-12T17:32:27.154Z,4.97
2023-05-12T17:34:54.347Z,4.70
2023-05-12T17:37:21.341Z,6.68
2023-05-12T17:39:50.536Z,4.60
2023-05-12T17:42:17.415Z,5.80
2023-05-12T17:44:44.989Z,4.22
2023-05-12T17:47:13.979Z,6.80
2023-05-12T17:49:41.579Z,6.78
2023-05-12T17:52:08.648Z,11.45
2023-05-12T17:54:36.017Z,6.53
2023-05-12T17:57:04.846Z,5.03
2023-05-12T17:59:32.260Z,6.55
2023-05-12T18:02:00.660Z,7.32
2023-05-12T18:04:27.895Z,5.63
2023-05-12T18:06:54.991Z,3.90
2023-05-12T18:09:23.811Z,6.93
2023-05-12T18:11:50.830Z,8.93
2023-05-12T18:14:20.057Z,4.28
2023-05-12T18:16:47.046Z,4.90
2023-05-12T18:19:14.102Z,11.27
2023-05-12T18:21:40.982Z,3.65
2023-05-12T18:24:08.456Z,9.73
2023-05-12T18:26:35.518Z,7.00
2023-05-12T18:29:02.702Z,9.60
2023-05-12T18:31:31.041Z,6.20
2023-05-12T18:33:58.193Z,10.88
2023-05-12T18:36:25.025Z,6.10
2023-05-12T18:38:52.585Z,10.25
2023-05-12T18:41:19.497Z,9.20
2023-05-12T18:43:46.990Z,10.20
2023-05-12T18:46:13.842Z,6.18
2023-05-12T18:48:42.069Z,8.75
2023-05-12T18:51:09.436Z,6.78
2023-05-12T18:53:37.124Z,5.22
2023-05-12T18:56:04.368Z,5.50
2023-05-12T18:58:31.322Z,4.95
2023-05-12T19:00:58.967Z,9.73
2023-05-12T19:03:25.872Z,5.28
2023-05-12T19:05:54.135Z,8.00
2023-05-12T19:08:21.094Z,4.40
2023-05-12T19:10:48.352Z,7.90
2023-05-12T19:13:15.201Z,5.30
2023-05-12T19:15:42.476Z,5.40
2023-05-12T19:18:09.374Z,10.88
2023-05-12T19:20:37.323Z,12.30
2023-05-12T19:23:05.612Z,7.07
2023-05-12T19:25:32.778Z,6.78
2023-05-12T19:28:00.422Z,8.38
2023-05-12T19:30:29.354Z,5.43
2023-05-12T19:32:56.381Z,13.00
2023-05-12T19:35:23.897Z,8.25
2023-05-12T19:37:51.261Z,9.65
2023-05-12T19:40:19.904Z,7.55
2023-05-12T19:42:46.883Z,11.77
2023-05-12T19:45:14.215Z,13.13
2023-05-12T19:47:41.470Z,5.90
2023-05-12T19:50:09.886Z,7.32
2023-05-12T19:52:37.453Z,6.78
2023-05-12T19:55:05.499Z,8.13
2023-05-12T19:57:35.559Z,8.73
2023-05-12T20:00:03.178Z,5.60
2023-05-12T20:02:31.688Z,5.35
2023-05-12T20:05:00.805Z,9.02
2023-05-12T20:07:28.016Z,11.27
2023-05-12T20:09:55.860Z,8.23
2023-05-12T20:12:22.711Z,7.32
2023-05-12T20:14:50.897Z,7.47
2023-05-12T20:17:17.807Z,10.68
2023-05-12T20:19:44.935Z,7.53
2023-05-12T20:22:13.161Z,9.95
2023-05-12T20:24:40.036Z,10.93
2023-05-12T20:27:08.071Z,13.73
2023-05-12T20:29:35.281Z,11.07
2023-05-12T20:32:03.748Z,5.55
2023-05-12T20:34:30.514Z,6.43
2023-05-12T20:36:57.831Z,5.45
2023-05-12T20:39:24.999Z,10.07
2023-05-12T20:41:52.313Z,6.72
2023-05-12T20:44:20.343Z,6.90
2023-05-12T20:46:48.410Z,4.13
2023-05-12T20:49:17.002Z,5.57
2023-05-12T20:51:44.556Z,7.07
2023-05-12T20:54:12.040Z,7.50
2023-05-12T20:56:39.143Z,10.60
2023-05-12T20:59:06.565Z,10.73
2023-05-12T21:01:33.673Z,5.23
2023-05-12T21:04:01.055Z,5.30
2023-05-12T21:06:29.688Z,9.90
2023-05-12T21:08:56.460Z,12.23
2023-05-12T21:11:23.687Z,12.33
2023-05-12T21:13:50.534Z,6.72
2023-05-12T21:16:17.461Z,28.20
2023-05-12T21:18:44.498Z,10.27
2023-05-12T21:21:11.845Z,13.97
2023-05-12T21:23:40.525Z,7.60
2023-05-12T21:26:10.286Z,11.83
2023-05-12T21:28:37.560Z,5.33
2023-05-12T21:31:04.740Z,9.30
2023-05-12T21:33:32.896Z,7.97
2023-05-12T21:35:59.877Z,12.30
2023-05-12T21:38:26.703Z,7.07
2023-05-12T21:40:56.448Z,8.33
2023-05-12T21:43:23.358Z,5.60
2023-05-12T21:45:50.654Z,5.77
2023-05-12T21:48:18.050Z,7.10
2023-05-12T21:50:45.251Z,9.77
2023-05-12T21:53:12.150Z,9.70
2023-05-12T21:55:41.527Z,4.40
2023-05-12T21:58:09.661Z,8.97
2023-05-12T22:00:36.803Z,7.37
2023-05-12T22:03:03.837Z,6.30
2023-05-12T22:05:32.208Z,6.77
2023-05-12T22:07:58.951Z,8.37
2023-05-12T22:10:26.045Z,8.40
2023-05-12T22:12:53.007Z,7.57
2023-05-12T22:15:22.047Z,7.20
2023-05-12T22:17:49.502Z,8.00
2023-05-12T22:20:17.508Z,6.97
2023-05-12T22:22:44.351Z,6.20
2023-05-12T22:25:11.652Z,6.07
2023-05-12T22:27:38.778Z,7.20
2023-05-12T22:30:07.181Z,6.27
2023-05-12T22:32:35.382Z,6.23
2023-05-12T22:35:02.497Z,10.93
2023-05-12T22:37:29.592Z,8.90
2023-05-12T22:39:56.725Z,6.30
2023-05-12T22:42:23.684Z,7.50
2023-05-12T22:44:51.228Z,11.47
2023-05-12T22:47:18.241Z,11.63
2023-05-12T22:49:46.563Z,9.83
2023-05-12T22:52:13.343Z,6.13
2023-05-12T22:54:40.620Z,4.97
2023-05-12T22:57:07.446Z,8.77
2023-05-12T22:59:34.634Z,9.33
2023-05-12T23:02:01.462Z,10.03
2023-05-12T23:04:28.747Z,9.73
2023-05-12T23:06:57.039Z,7.47
2023-05-12T23:09:24.226Z,8.17
2023-05-12T23:11:51.966Z,7.40
2023-05-12T23:14:19.209Z,7.63
2023-05-12T23:16:47.972Z,7.47
2023-05-12T23:19:15.576Z,7.90
2023-05-12T23:21:42.428Z,8.80
2023-05-12T23:24:11.060Z,8.17
2023-05-12T23:26:37.888Z,12.23
2023-05-12T23:29:05.042Z,6.93
2023-05-12T23:31:31.920Z,9.33
2023-05-12T23:33:59.074Z,8.83
2023-05-12T23:36:25.850Z,7.80
2023-05-12T23:38:54.960Z,6.80
2023-05-12T23:41:23.156Z,10.30
2023-05-12T23:43:50.300Z,8.40
2023-05-12T23:46:17.460Z,5.60
2023-05-12T23:48:44.679Z,11.17
2023-05-12T23:51:11.493Z,8.73
2023-05-12T23:53:38.649Z,12.17
2023-05-12T23:56:06.214Z,8.50
2023-05-12T23:58:34.797Z,12.33
